Carnival Destiny — C6FN4 — position and weather

sailwx.info

Track history (hours):
 
Tides and Currents Weather Stations Pressure Air Temp Water Temp Dewpoint Dewpoint Depression Visibility Wind Speed Wind Dir Waves Ship Positions

Carnival Destiny

Operator: Carnival Cruise Lines

Last reported at 2019-Mar-22 11:00 UTC. Time now 2019-Mar-22 12:19 UTC.
Position N 20°36' W 066°48'.

Type: Passenger vessel. MMSI: 308017000.

Wind from 120 at 10 knots

Barometer 1016.1 mb
Air temperature 25.0 ° C
Visibility: greater than 10.8 NM
Dewpoint 20.4 ° C
Water temperature 28.0 ° C

Date/timePositionNaut miles runAvg speedWind from/ knotsBaromVisibWave heightAir tempDewpointWater temp
2019-Mar-22 11:00N 20°36' W 066°48'10020.1 120 / 101016.110.8 25.020.428.0
2019-Mar-22 06:00N 19°42' W 065°18'11619.3 110 / 181014.810.8 25.022.025.0
2019-Mar-22 00:00N 18°30' W 063°42'1422.2 110 / 271015.510.8 24.021.024.0
2019-Mar-21 23:23N 18°21' W 063°31'820.2
2019-Mar-21 23:00N 18°15' W 063°26'1020.3
2019-Mar-21 22:30N 18°07' W 063°19'1319.2
2019-Mar-21 21:51N 18°00' W 063°08'510.1
2019-Mar-21 21:20N 18°01' W 063°03'0 0.0
2019-Mar-21 20:53N 18°01' W 063°03'0 0.0
2019-Mar-21 20:26N 18°01' W 063°03'0 0.0
2019-Mar-21 19:56N 18°01' W 063°03'0 0.0
2019-Mar-21 19:29N 18°01' W 063°03'0 0.0
2019-Mar-21 18:57N 18°01' W 063°03'0 0.0
2019-Mar-21 18:30N 18°01' W 063°03'0 0.0
2019-Mar-21 17:57N 18°01' W 063°03'0 0.0
2019-Mar-21 17:26N 18°01' W 063°03'0 0.0
2019-Mar-21 16:56N 18°01' W 063°03'0 0.0
2019-Mar-21 16:29N 18°01' W 063°03'0 0.0
2019-Mar-21 15:56N 18°01' W 063°03'0 0.0
2019-Mar-21 15:17N 18°01' W 063°03'0 0.0
2019-Mar-21 14:59N 18°01' W 063°03'0 0.0
2019-Mar-21 14:30N 18°01' W 063°03'0 0.0
2019-Mar-21 13:59N 18°01' W 063°03'0 0.0
2019-Mar-21 13:29N 18°01' W 063°03'0 0.0
2019-Mar-21 12:59N 18°01' W 063°03'0 0.0
2019-Mar-21 12:02N 18°01' W 063°03'0 0.0
2019-Mar-21 11:47N 18°01' W 063°03'0 0.7
2019-Mar-21 11:21N 18°00' W 063°03'1 3.3
2019-Mar-21 10:58N 18°00' W 063°04'5 8.7
2019-Mar-21 10:22N 18°00' W 063°10'3 7.9
2019-Mar-21 09:59N 18°00' W 063°13'4 7.9
2019-Mar-21 09:26N 17°60' W 063°17'4 8.8
2019-Mar-21 08:58N 18°00' W 063°22'5 9.0
2019-Mar-21 08:25N 18°00' W 063°27'4 8.2
2019-Mar-21 07:59N 18°00' W 063°31'4 8.1
2019-Mar-21 07:27N 18°01' W 063°35'4 8.0
2019-Mar-21 06:58N 18°01' W 063°39'4 7.7
2019-Mar-21 06:29N 17°60' W 063°43'4 7.8
2019-Mar-21 06:00N 17°56' W 063°45'4485.3
2019-Mar-21 06:00N 17°54' W 063°42'3 5.3 130 / 251017.910.8 25.020.425.0
2019-Mar-21 05:25N 17°51' W 063°44'4 8.4
2019-Mar-21 04:57N 17°50' W 063°40'712.7
2019-Mar-21 04:27N 17°49' W 063°33'4 8.8
2019-Mar-21 03:58N 17°49' W 063°28'4 8.3
2019-Mar-21 03:27N 17°48' W 063°24'816.1
2019-Mar-21 02:57N 17°45' W 063°16'816.2
2019-Mar-21 02:29N 17°39' W 063°11'816.8
2019-Mar-21 02:00N 17°32' W 063°08'916.3
2019-Mar-21 01:29N 17°25' W 063°03'817.0
2019-Mar-21 01:00N 17°20' W 062°55'916.6
2019-Mar-21 00:27N 17°16' W 062°47'1 0.1
2019-Mar-20 13:11N 17°16' W 062°46'517.7
2019-Mar-20 12:53N 17°18' W 062°51'718.1
2019-Mar-20 12:30N 17°21' W 062°57'917.8
2019-Mar-20 12:00N 17°27' W 063°04'917.7
2019-Mar-20 11:28N 17°36' W 063°07'816.6
2019-Mar-20 10:58N 17°42' W 063°14'817.4
2019-Mar-20 10:30N 17°45' W 063°21'917.4
2019-Mar-20 09:58N 17°49' W 063°30'817.3
2019-Mar-20 09:30N 17°52' W 063°38'6217.8
2019-Mar-20 06:00N 18°06' W 064°42'2 8.0 120 / 221018.910.8 25.022.025.0
2019-Mar-20 05:46N 18°07' W 064°43'517.6
2019-Mar-20 05:30N 18°08' W 064°48'7815.7
2019-Mar-20 00:30N 18°30' W 066°07'3 6.0
2019-Mar-20 00:00N 18°28' W 066°07'0 0.3
2019-Mar-19 23:12N 18°28' W 066°07'0 0.0
2019-Mar-19 23:00N 18°28' W 066°07'0 0.0
2019-Mar-19 22:30N 18°28' W 066°07'0 0.0
2019-Mar-19 22:00N 18°28' W 066°07'0 0.0
2019-Mar-19 21:30N 18°28' W 066°07'0 0.0
2019-Mar-19 21:00N 18°28' W 066°07'  
2019-Mar-17 06:00N 27°12' W 077°48'95 4.0 120 / 151020.910.8 24.021.025.0
2019-Mar-16 06:00N 27°54' W 079°24'64313.4 180 / 141022.910.8 23.016.524.0
2019-Mar-14 06:00N 21°12' W 070°12'   100 / 121019.910.8 24.017.625.0
Track history (hours):
 
Tides and Currents Weather Stations Pressure Air Temp Water Temp Dewpoint Dewpoint Depression Visibility Wind Speed Wind Dir Waves Ship Positions

Carnival Destiny

Operator: Carnival Cruise Lines

Last reported at 2019-Mar-22 11:00 UTC. Time now 2019-Mar-22 12:19 UTC.
Position N 20°36' W 066°48'.

Type: Passenger vessel. MMSI: 308017000.

Wind from 120 at 10 knots

Barometer 1016.1 mb
Air temperature 25.0 ° C
Visibility: greater than 10.8 NM
Dewpoint 20.4 ° C
Water temperature 28.0 ° C

Date/timePositionNaut miles runAvg speedWind from/ knotsBaromVisibWave heightAir tempDewpointWater temp
2019-Mar-22 11:00N 20°36' W 066°48'10020.1 120 / 101016.110.8 25.020.428.0
2019-Mar-22 06:00N 19°42' W 065°18'11619.3 110 / 181014.810.8 25.022.025.0
2019-Mar-22 00:00N 18°30' W 063°42'1422.2 110 / 271015.510.8 24.021.024.0
2019-Mar-21 23:23N 18°21' W 063°31'820.2
2019-Mar-21 23:00N 18°15' W 063°26'1020.3
2019-Mar-21 22:30N 18°07' W 063°19'1319.2
2019-Mar-21 21:51N 18°00' W 063°08'510.1
2019-Mar-21 21:20N 18°01' W 063°03'0 0.0
2019-Mar-21 20:53N 18°01' W 063°03'0 0.0
2019-Mar-21 20:26N 18°01' W 063°03'0 0.0
2019-Mar-21 19:56N 18°01' W 063°03'0 0.0
2019-Mar-21 19:29N 18°01' W 063°03'0 0.0
2019-Mar-21 18:57N 18°01' W 063°03'0 0.0
2019-Mar-21 18:30N 18°01' W 063°03'0 0.0
2019-Mar-21 17:57N 18°01' W 063°03'0 0.0
2019-Mar-21 17:26N 18°01' W 063°03'0 0.0
2019-Mar-21 16:56N 18°01' W 063°03'0 0.0
2019-Mar-21 16:29N 18°01' W 063°03'0 0.0
2019-Mar-21 15:56N 18°01' W 063°03'0 0.0
2019-Mar-21 15:17N 18°01' W 063°03'0 0.0
2019-Mar-21 14:59N 18°01' W 063°03'0 0.0
2019-Mar-21 14:30N 18°01' W 063°03'0 0.0
2019-Mar-21 13:59N 18°01' W 063°03'0 0.0
2019-Mar-21 13:29N 18°01' W 063°03'0 0.0
2019-Mar-21 12:59N 18°01' W 063°03'0 0.0
2019-Mar-21 12:02N 18°01' W 063°03'0 0.0
2019-Mar-21 11:47N 18°01' W 063°03'0 0.7
2019-Mar-21 11:21N 18°00' W 063°03'1 3.3
2019-Mar-21 10:58N 18°00' W 063°04'5 8.7
2019-Mar-21 10:22N 18°00' W 063°10'3 7.9
2019-Mar-21 09:59N 18°00' W 063°13'4 7.9
2019-Mar-21 09:26N 17°60' W 063°17'4 8.8
2019-Mar-21 08:58N 18°00' W 063°22'5 9.0
2019-Mar-21 08:25N 18°00' W 063°27'4 8.2
2019-Mar-21 07:59N 18°00' W 063°31'4 8.1
2019-Mar-21 07:27N 18°01' W 063°35'4 8.0
2019-Mar-21 06:58N 18°01' W 063°39'4 7.7
2019-Mar-21 06:29N 17°60' W 063°43'4 7.8
2019-Mar-21 06:00N 17°56' W 063°45'4485.3
2019-Mar-21 06:00N 17°54' W 063°42'3 5.3 130 / 251017.910.8 25.020.425.0
2019-Mar-21 05:25N 17°51' W 063°44'4 8.4
2019-Mar-21 04:57N 17°50' W 063°40'712.7
2019-Mar-21 04:27N 17°49' W 063°33'4 8.8
2019-Mar-21 03:58N 17°49' W 063°28'4 8.3
2019-Mar-21 03:27N 17°48' W 063°24'816.1
2019-Mar-21 02:57N 17°45' W 063°16'816.2
2019-Mar-21 02:29N 17°39' W 063°11'816.8
2019-Mar-21 02:00N 17°32' W 063°08'916.3
2019-Mar-21 01:29N 17°25' W 063°03'817.0
2019-Mar-21 01:00N 17°20' W 062°55'916.6
2019-Mar-21 00:27N 17°16' W 062°47'1 0.1
2019-Mar-20 13:11N 17°16' W 062°46'517.7
2019-Mar-20 12:53N 17°18' W 062°51'718.1
2019-Mar-20 12:30N 17°21' W 062°57'917.8
2019-Mar-20 12:00N 17°27' W 063°04'917.7
2019-Mar-20 11:28N 17°36' W 063°07'816.6
2019-Mar-20 10:58N 17°42' W 063°14'817.4
2019-Mar-20 10:30N 17°45' W 063°21'917.4
2019-Mar-20 09:58N 17°49' W 063°30'817.3
2019-Mar-20 09:30N 17°52' W 063°38'6217.8
2019-Mar-20 06:00N 18°06' W 064°42'2 8.0 120 / 221018.910.8 25.022.025.0
2019-Mar-20 05:46N 18°07' W 064°43'517.6
2019-Mar-20 05:30N 18°08' W 064°48'7815.7
2019-Mar-20 00:30N 18°30' W 066°07'3 6.0
2019-Mar-20 00:00N 18°28' W 066°07'0 0.3
2019-Mar-19 23:12N 18°28' W 066°07'0 0.0
2019-Mar-19 23:00N 18°28' W 066°07'0 0.0
2019-Mar-19 22:30N 18°28' W 066°07'0 0.0
2019-Mar-19 22:00N 18°28' W 066°07'0 0.0
2019-Mar-19 21:30N 18°28' W 066°07'0 0.0
2019-Mar-19 21:00N 18°28' W 066°07'  
2019-Mar-17 06:00N 27°12' W 077°48'95 4.0 120 / 151020.910.8 24.021.025.0
2019-Mar-16 06:00N 27°54' W 079°24'64313.4 180 / 141022.910.8 23.016.524.0
2019-Mar-14 06:00N 21°12' W 070°12'   100 / 121019.910.8 24.017.625.0

Dump ship's entire track history